Time;durP1;ratioP1;P1;durP2;ratioP2;P2;SDS_P1;SDS_P2;PMS_P1;PMS_P2;Temp;Humidity;BMP_temperature;BMP_pressure;BME280_temperature;BME280_humidity;BME280_pressure;Samples;Min_cycle;Max_cycle;Signal;HPM_P1;HPM_P2
2023/04/27 00:01:14;;;;;;;6.82;3.65;;;1.20;99.90;;;;;;4989692;28;20056;-75
2023/04/27 00:03:41;;;;;;;6.47;3.63;;;1.20;99.90;;;;;;5006116;28;20490;-73
2023/04/27 00:06:10;;;;;;;7.35;4.13;;;1.70;99.90;;;;;;4989379;28;20548;-73
2023/04/27 00:08:36;;;;;;;8.93;4.13;;;1.30;99.90;;;;;;5004116;28;20058;-78
2023/04/27 00:11:01;;;;;;;7.93;3.53;;;1.30;99.90;;;;;;4984331;28;20057;-74
2023/04/27 00:13:27;;;;;;;6.90;3.72;;;1.30;99.90;;;;;;5002281;28;20068;-74
2023/04/27 00:15:53;;;;;;;9.20;4.03;;;1.30;99.90;;;;;;5000487;28;20160;-75
2023/04/27 00:18:19;;;;;;;9.02;4.18;;;1.40;99.90;;;;;;4964965;28;20050;-74
2023/04/27 00:20:45;;;;;;;10.07;3.90;;;1.40;99.90;;;;;;4981364;28;20461;-73
2023/04/27 00:23:10;;;;;;;6.40;4.50;;;1.50;99.90;;;;;;5001641;28;20133;-74
2023/04/27 00:25:36;;;;;;;6.50;3.50;;;1.50;99.90;;;;;;5000118;28;20501;-76
2023/04/27 00:28:02;;;;;;;5.88;3.80;;;1.50;99.90;;;;;;4999766;28;20096;-74
2023/04/27 00:30:28;;;;;;;6.57;4.25;;;1.50;99.90;;;;;;5002005;28;20042;-76
2023/04/27 00:32:54;;;;;;;6.32;3.97;;;1.60;99.90;;;;;;4984063;28;20038;-74
2023/04/27 00:35:19;;;;;;;10.30;4.45;;;1.60;99.90;;;;;;4999520;28;20046;-79
2023/04/27 00:37:45;;;;;;;9.10;4.38;;;1.70;99.90;;;;;;4997549;28;20410;-75
2023/04/27 00:40:11;;;;;;;7.55;4.60;;;1.70;99.90;;;;;;4997879;28;20042;-77
2023/04/27 00:42:37;;;;;;;11.40;5.50;;;1.70;99.90;;;;;;5002105;28;20096;-82
2023/04/27 00:45:04;;;;;;;10.23;4.63;;;1.70;99.90;;;;;;5000810;28;20042;-79
2023/04/27 00:47:31;;;;;;;13.85;4.45;;;1.70;99.90;;;;;;5008295;28;20042;-79
2023/04/27 00:49:57;;;;;;;7.93;4.90;;;1.70;99.90;;;;;;4981507;28;20126;-80
2023/04/27 00:52:24;;;;;;;9.27;4.95;;;1.70;99.90;;;;;;4999306;28;20054;-75
2023/04/27 00:54:51;;;;;;;10.25;5.30;;;1.70;99.90;;;;;;5001387;28;20116;-79
2023/04/27 00:57:17;;;;;;;12.52;5.35;;;1.70;99.90;;;;;;5001861;28;20057;-74
2023/04/27 00:59:43;;;;;;;6.82;4.72;;;1.70;99.90;;;;;;4999431;28;20433;-75
2023/04/27 01:02:11;;;;;;;8.50;5.13;;;1.70;99.90;;;;;;4998564;28;20050;-74
2023/04/27 01:04:37;;;;;;;12.18;6.40;;;1.60;99.90;;;;;;4981728;28;20058;-74
2023/04/27 01:07:02;;;;;;;11.38;5.47;;;1.60;99.90;;;;;;4967783;28;20061;-74
2023/04/27 01:09:29;;;;;;;12.20;6.18;;;1.60;99.90;;;;;;5001206;28;20068;-75
2023/04/27 01:11:54;;;;;;;10.93;6.68;;;1.70;99.90;;;;;;4990425;28;20157;-75
2023/04/27 01:14:20;;;;;;;10.15;6.20;;;1.70;99.90;;;;;;4998362;28;20109;-76
2023/04/27 01:16:46;;;;;;;10.55;5.78;;;1.70;99.90;;;;;;4989937;28;20768;-75
2023/04/27 01:19:12;;;;;;;13.23;6.07;;;1.70;99.90;;;;;;4993679;28;20045;-75
2023/04/27 01:21:38;;;;;;;10.50;5.68;;;1.70;99.90;;;;;;5001374;28;20042;-75
2023/04/27 01:24:06;;;;;;;16.95;5.38;;;1.60;99.90;;;;;;4978916;28;20154;-75
2023/04/27 01:26:32;;;;;;;10.25;5.65;;;1.60;99.90;;;;;;4993129;28;20049;-81
2023/04/27 01:28:58;;;;;;;8.55;5.40;;;1.60;99.90;;;;;;5001476;28;20089;-75
2023/04/27 01:31:23;;;;;;;10.60;5.43;;;1.60;99.90;;;;;;4998206;28;20712;-74
2023/04/27 01:33:49;;;;;;;9.73;5.80;;;1.50;99.90;;;;;;4998027;28;20444;-75
2023/04/27 01:36:15;;;;;;;13.80;5.65;;;1.50;99.90;;;;;;4998118;28;20068;-75
2023/04/27 01:38:41;;;;;;;8.23;5.18;;;1.40;99.90;;;;;;5001044;28;20177;-78
2023/04/27 01:41:08;;;;;;;11.80;5.00;;;1.40;99.90;;;;;;4999493;28;20045;-75
2023/04/27 01:43:34;;;;;;;9.95;4.88;;;1.40;99.90;;;;;;4997487;28;20046;-76
2023/04/27 01:46:11;;;;;;;9.13;4.68;;;1.30;99.90;;;;;;4993492;28;20050;-75
2023/04/27 01:48:37;;;;;;;11.30;5.32;;;1.30;99.90;;;;;;5000173;28;20557;-77
2023/04/27 01:51:03;;;;;;;12.07;5.15;;;1.30;99.90;;;;;;5001399;28;20389;-74
2023/04/27 01:53:29;;;;;;;10.48;5.32;;;1.30;99.90;;;;;;4983975;28;20061;-73
2023/04/27 01:55:55;;;;;;;12.98;5.32;;;1.20;99.90;;;;;;4992619;28;20066;-74
2023/04/27 01:58:21;;;;;;;8.13;4.75;;;1.10;99.90;;;;;;5000513;28;20528;-74
2023/04/27 02:00:47;;;;;;;10.18;4.47;;;1.10;99.90;;;;;;4999853;28;20506;-73
2023/04/27 02:03:12;;;;;;;8.60;4.93;;;1.10;99.90;;;;;;4998878;28;20084;-75
2023/04/27 02:05:38;;;;;;;7.97;5.05;;;1.10;99.90;;;;;;4986383;28;20042;-75
2023/04/27 02:08:04;;;;;;;9.77;5.60;;;1.10;99.90;;;;;;4999730;28;20106;-72
2023/04/27 02:10:30;;;;;;;9.23;5.30;;;1.00;99.90;;;;;;4983341;28;20050;-77
2023/04/27 02:12:56;;;;;;;9.40;5.32;;;0.90;99.90;;;;;;4999501;28;20085;-74
2023/04/27 02:15:21;;;;;;;12.80;5.80;;;0.90;99.90;;;;;;5000881;28;20125;-74
2023/04/27 02:17:47;;;;;;;9.13;5.15;;;0.90;99.90;;;;;;4998206;28;20129;-75
2023/04/27 02:20:13;;;;;;;11.52;5.90;;;0.90;99.90;;;;;;5004024;28;20509;-77
2023/04/27 02:22:43;;;;;;;12.43;5.53;;;0.90;99.90;;;;;;5003968;28;20046;-75
2023/04/27 02:25:10;;;;;;;8.75;5.60;;;0.90;99.90;;;;;;4978047;28;20043;-75
2023/04/27 02:27:42;;;;;;;7.93;4.97;;;0.90;99.90;;;;;;5003454;28;20136;-77
2023/04/27 02:30:10;;;;;;;8.38;5.03;;;0.90;99.90;;;;;;5002199;28;20488;-79
2023/04/27 02:32:36;;;;;;;10.00;5.30;;;0.90;99.90;;;;;;5000803;28;20046;-76
2023/04/27 02:35:03;;;;;;;10.52;5.20;;;0.80;99.90;;;;;;5000707;28;20038;-76
2023/04/27 02:37:29;;;;;;;11.73;6.07;;;0.80;99.90;;;;;;4991567;28;20157;-75
2023/04/27 02:39:55;;;;;;;9.85;5.32;;;0.90;99.90;;;;;;4997969;28;20507;-76
2023/04/27 02:42:21;;;;;;;15.43;5.78;;;0.90;99.90;;;;;;4994290;28;20101;-77
2023/04/27 02:44:46;;;;;;;12.00;6.40;;;0.90;99.90;;;;;;4982442;28;20129;-74
2023/04/27 02:47:13;;;;;;;13.77;6.47;;;0.80;99.90;;;;;;5000491;28;20121;-75
2023/04/27 02:49:39;;;;;;;9.70;5.18;;;0.80;99.90;;;;;;4969685;28;20064;-74
2023/04/27 02:52:05;;;;;;;10.25;5.18;;;0.80;99.90;;;;;;5003698;28;20370;-78
2023/04/27 02:54:31;;;;;;;9.23;4.80;;;0.70;99.90;;;;;;5002043;28;20050;-73
2023/04/27 02:56:57;;;;;;;9.85;5.13;;;0.70;99.90;;;;;;4982287;28;20046;-73
2023/04/27 02:59:22;;;;;;;8.45;4.80;;;0.60;99.90;;;;;;5000027;28;20379;-75
2023/04/27 03:01:48;;;;;;;8.77;4.88;;;0.60;99.90;;;;;;5005263;28;20061;-74
2023/04/27 03:04:13;;;;;;;9.20;4.72;;;0.60;99.90;;;;;;4986091;28;20046;-74
2023/04/27 03:06:40;;;;;;;10.52;5.70;;;0.60;99.90;;;;;;5002250;28;20505;-74
2023/04/27 03:09:06;;;;;;;12.02;6.20;;;0.60;99.90;;;;;;4991078;28;20065;-79
2023/04/27 03:11:32;;;;;;;17.17;6.88;;;0.60;99.90;;;;;;4987489;28;20054;-74
2023/04/27 03:13:58;;;;;;;12.68;5.93;;;0.60;99.90;;;;;;4981603;28;20051;-74
2023/04/27 03:16:23;;;;;;;14.90;6.55;;;0.60;99.90;;;;;;4985513;28;20051;-75
2023/04/27 03:18:49;;;;;;;8.70;5.13;;;0.60;99.90;;;;;;4988661;28;20082;-80
2023/04/27 03:21:15;;;;;;;9.38;5.60;;;0.70;99.90;;;;;;4981984;28;20054;-75
2023/04/27 03:23:41;;;;;;;13.60;5.72;;;0.60;99.90;;;;;;4991093;28;20085;-74
2023/04/27 03:26:08;;;;;;;13.60;6.00;;;0.60;99.90;;;;;;4981553;28;20086;-74
2023/04/27 03:28:34;;;;;;;9.82;5.35;;;0.60;99.90;;;;;;4991358;28;20057;-86
2023/04/27 03:31:03;;;;;;;14.70;6.40;;;0.60;99.90;;;;;;4990932;28;20108;-73
2023/04/27 03:33:28;;;;;;;7.78;5.13;;;0.60;99.90;;;;;;4991484;28;20038;-73
2023/04/27 03:35:56;;;;;;;12.27;5.75;;;0.60;99.90;;;;;;4991220;28;20453;-76
2023/04/27 03:38:25;;;;;;;8.98;5.63;;;0.60;99.90;;;;;;4976420;28;20101;-74
2023/04/27 03:40:51;;;;;;;11.45;6.03;;;0.50;99.90;;;;;;4986001;28;20073;-73
2023/04/27 03:43:17;;;;;;;11.20;6.57;;;0.50;99.90;;;;;;4990961;28;20144;-74
2023/04/27 03:45:43;;;;;;;15.48;7.18;;;0.50;99.90;;;;;;4991001;28;20038;-74
2023/04/27 03:48:09;;;;;;;15.00;6.55;;;0.50;99.90;;;;;;4981450;28;20417;-74
2023/04/27 03:50:34;;;;;;;11.05;6.13;;;0.50;99.90;;;;;;4990943;28;20101;-74
2023/04/27 03:53:00;;;;;;;10.85;6.07;;;0.50;99.90;;;;;;4990911;28;20101;-74
2023/04/27 03:55:26;;;;;;;11.75;6.50;;;0.50;99.90;;;;;;4990789;28;20453;-75
2023/04/27 03:57:52;;;;;;;10.88;5.75;;;0.50;99.90;;;;;;4991516;28;20042;-73
2023/04/27 04:00:17;;;;;;;13.35;5.57;;;0.40;99.90;;;;;;4992737;28;20121;-74
2023/04/27 04:02:44;;;;;;;11.20;6.82;;;0.40;99.90;;;;;;4982178;28;20508;-79
2023/04/27 04:05:11;;;;;;;10.52;5.90;;;0.40;99.90;;;;;;4985893;28;20038;-74
2023/04/27 04:07:36;;;;;;;12.27;6.10;;;0.40;99.90;;;;;;4994497;28;20120;-76
2023/04/27 04:10:03;;;;;;;10.65;6.25;;;0.40;99.90;;;;;;5008712;28;20049;-85
2023/04/27 04:12:29;;;;;;;12.10;6.45;;;0.40;99.90;;;;;;5012397;28;20058;-81
2023/04/27 04:14:55;;;;;;;11.32;6.55;;;0.40;99.90;;;;;;5019221;28;20041;-80
2023/04/27 04:17:21;;;;;;;12.77;6.28;;;0.40;99.90;;;;;;5004023;28;20049;-82
2023/04/27 04:19:46;;;;;;;14.20;6.35;;;0.50;99.90;;;;;;5022059;28;20103;-82
2023/04/27 04:22:12;;;;;;;10.88;6.32;;;0.40;99.90;;;;;;5018771;28;20041;-79
2023/04/27 04:24:39;;;;;;;11.57;6.75;;;0.50;99.90;;;;;;5018764;28;20057;-74
2023/04/27 04:27:05;;;;;;;12.00;5.75;;;0.50;99.90;;;;;;5011916;28;20054;-74
2023/04/27 04:29:31;;;;;;;9.57;5.15;;;0.40;99.90;;;;;;5021986;28;20048;-76
2023/04/27 04:31:57;;;;;;;9.85;5.38;;;0.40;99.90;;;;;;5021761;28;20219;-79
2023/04/27 04:34:23;;;;;;;9.95;5.80;;;0.40;99.90;;;;;;5008194;28;20062;-80
2023/04/27 04:36:52;;;;;;;13.55;6.15;;;0.30;99.90;;;;;;5010450;28;20034;-77
2023/04/27 04:39:21;;;;;;;11.27;6.05;;;0.30;99.90;;;;;;5018187;28;20657;-77
2023/04/27 04:41:48;;;;;;;11.32;5.47;;;0.30;99.90;;;;;;5023125;28;20042;-76
2023/04/27 04:44:14;;;;;;;10.05;5.70;;;0.30;99.90;;;;;;5018807;28;20081;-76
2023/04/27 04:46:41;;;;;;;9.82;5.53;;;0.30;99.90;;;;;;5018791;28;20049;-77
2023/04/27 04:49:07;;;;;;;12.45;5.65;;;0.30;99.90;;;;;;5018376;28;20034;-76
2023/04/27 04:51:33;;;;;;;14.18;6.15;;;0.30;99.90;;;;;;5018960;28;20378;-78
2023/04/27 04:53:58;;;;;;;10.07;5.50;;;0.40;99.90;;;;;;5015336;28;20052;-75
2023/04/27 04:56:24;;;;;;;13.57;6.53;;;0.40;99.90;;;;;;5018791;28;20412;-75
2023/04/27 04:58:50;;;;;;;13.05;7.03;;;0.40;99.90;;;;;;5018920;28;20034;-74
2023/04/27 05:01:15;;;;;;;11.75;6.78;;;0.40;99.90;;;;;;5018105;28;20448;-75
2023/04/27 05:03:41;;;;;;;12.88;6.90;;;0.50;99.90;;;;;;5026412;28;20056;-74
2023/04/27 05:06:07;;;;;;;10.45;6.15;;;0.50;99.90;;;;;;5017897;28;20050;-74
2023/04/27 05:08:32;;;;;;;9.95;6.20;;;0.60;99.90;;;;;;5016137;28;20416;-74
2023/04/27 05:10:58;;;;;;;11.43;5.22;;;0.60;99.90;;;;;;4992493;28;20044;-76
2023/04/27 05:13:24;;;;;;;10.15;5.45;;;0.60;99.90;;;;;;5010464;28;20061;-73
2023/04/27 05:15:50;;;;;;;14.43;6.65;;;0.60;99.90;;;;;;5018584;28;20081;-74
2023/04/27 05:18:16;;;;;;;18.55;7.13;;;0.60;99.90;;;;;;5021211;28;20057;-74
2023/04/27 05:20:42;;;;;;;16.10;6.93;;;0.70;99.90;;;;;;5022140;28;20128;-73
2023/04/27 05:23:08;;;;;;;18.27;7.03;;;0.70;99.90;;;;;;5011792;28;20134;-74
2023/04/27 05:25:40;;;;;;;13.77;6.85;;;0.80;99.90;;;;;;5005044;28;20097;-73
2023/04/27 05:28:09;;;;;;;15.38;6.57;;;0.90;99.90;;;;;;5023040;28;20412;-76
2023/04/27 05:30:35;;;;;;;11.70;6.40;;;1.00;99.90;;;;;;5024614;28;20770;-73
2023/04/27 05:33:02;;;;;;;11.90;6.40;;;1.00;99.90;;;;;;5006945;28;20129;-73
2023/04/27 05:35:28;;;;;;;14.10;6.90;;;1.10;99.90;;;;;;5023179;28;20060;-73
2023/04/27 05:37:53;;;;;;;11.90;6.68;;;1.20;99.90;;;;;;5024412;28;20053;-73
2023/04/27 05:40:19;;;;;;;14.77;6.43;;;1.20;99.90;;;;;;5022778;28;20132;-74
2023/04/27 05:42:48;;;;;;;17.10;6.80;;;1.30;99.90;;;;;;5015527;28;20771;-74
2023/04/27 05:45:14;;;;;;;12.70;6.55;;;1.30;99.90;;;;;;5004949;28;20162;-74
2023/04/27 05:47:40;;;;;;;10.85;5.65;;;1.60;99.90;;;;;;5024123;28;20053;-74
2023/04/27 05:50:06;;;;;;;12.65;6.07;;;1.60;99.90;;;;;;5010519;28;20465;-75
2023/04/27 05:52:32;;;;;;;11.10;5.65;;;1.70;99.90;;;;;;5019341;28;20085;-74
2023/04/27 05:54:58;;;;;;;10.80;5.90;;;1.80;99.90;;;;;;5011343;28;20084;-74
2023/04/27 05:57:24;;;;;;;10.70;6.10;;;1.90;99.90;;;;;;5020912;28;20042;-75
2023/04/27 05:59:50;;;;;;;11.30;5.82;;;2.00;99.90;;;;;;5008458;28;20053;-75
2023/04/27 06:02:17;;;;;;;11.00;5.90;;;2.30;99.90;;;;;;5002459;28;20046;-74
2023/04/27 06:04:43;;;;;;;8.88;5.30;;;2.20;99.90;;;;;;5012577;28;20050;-75
2023/04/27 06:07:10;;;;;;;11.90;5.80;;;2.30;99.90;;;;;;5023565;28;20048;-78
2023/04/27 06:09:36;;;;;;;9.85;5.60;;;2.40;99.90;;;;;;5027629;28;20491;-75
2023/04/27 06:12:03;;;;;;;10.10;5.72;;;2.60;99.90;;;;;;5003793;28;20053;-75
2023/04/27 06:14:29;;;;;;;11.43;6.18;;;2.70;99.90;;;;;;5004194;28;20072;-77
2023/04/27 06:16:55;;;;;;;12.40;6.20;;;2.80;99.90;;;;;;5022346;28;20042;-79
2023/04/27 06:19:21;;;;;;;10.68;5.20;;;2.90;99.90;;;;;;5022287;28;20700;-74
2023/04/27 06:21:46;;;;;;;13.60;5.70;;;3.10;99.90;;;;;;5022543;28;20041;-72
2023/04/27 06:24:12;;;;;;;11.65;5.88;;;3.20;99.90;;;;;;5006679;28;20068;-76
2023/04/27 06:26:38;;;;;;;12.23;5.75;;;3.30;99.90;;;;;;4991271;28;20046;-78
2023/04/27 06:29:06;;;;;;;10.23;5.88;;;3.50;99.90;;;;;;5007589;28;20144;-77
2023/04/27 06:31:32;;;;;;;10.25;6.10;;;3.60;99.90;;;;;;5023473;28;20104;-79
2023/04/27 06:33:58;;;;;;;11.45;5.88;;;3.80;99.90;;;;;;5020259;28;20045;-79
2023/04/27 06:36:26;;;;;;;9.43;5.63;;;4.00;99.90;;;;;;5014723;28;20030;-76
2023/04/27 06:38:55;;;;;;;10.88;5.75;;;4.10;99.90;;;;;;5023029;28;20480;-78
2023/04/27 06:41:21;;;;;;;11.45;4.97;;;4.70;99.90;;;;;;5012317;28;20054;-85
2023/04/27 06:43:47;;;;;;;11.27;5.22;;;4.40;99.90;;;;;;5020405;28;20045;-75
2023/04/27 06:46:12;;;;;;;13.10;4.68;;;4.60;99.90;;;;;;5022805;28;20112;-74
2023/04/27 06:48:38;;;;;;;9.23;4.65;;;4.80;99.90;;;;;;5015318;28;20057;-75
2023/04/27 06:51:04;;;;;;;8.15;4.43;;;5.10;99.90;;;;;;4992369;28;20065;-75
2023/04/27 06:53:30;;;;;;;10.90;4.38;;;5.10;99.90;;;;;;5021110;28;20121;-81
2023/04/27 06:55:56;;;;;;;6.32;3.60;;;5.20;99.90;;;;;;5023162;28;20045;-75
2023/04/27 06:58:26;;;;;;;10.05;4.63;;;5.90;99.90;;;;;;5022969;28;20051;-79
2023/04/27 07:00:52;;;;;;;13.13;4.15;;;5.50;99.90;;;;;;4995561;28;20090;-74
2023/04/27 07:03:17;;;;;;;12.65;3.97;;;5.70;99.90;;;;;;5020051;28;20079;-76
2023/04/27 07:05:43;;;;;;;12.95;4.28;;;5.80;99.90;;;;;;5019855;28;20045;-73
2023/04/27 07:08:09;;;;;;;7.00;3.75;;;5.90;99.90;;;;;;5010445;28;20596;-72
2023/04/27 07:10:35;;;;;;;6.85;3.25;;;6.10;99.90;;;;;;5011306;28;20472;-80
2023/04/27 07:13:01;;;;;;;10.45;3.45;;;6.20;99.90;;;;;;5010849;28;20042;-77
2023/04/27 07:15:26;;;;;;;10.00;3.30;;;6.40;99.90;;;;;;5011084;28;20121;-76
2023/04/27 07:17:55;;;;;;;7.85;3.10;;;6.50;99.90;;;;;;5011189;28;20049;-74
2023/04/27 07:20:21;;;;;;;11.48;3.47;;;6.50;99.90;;;;;;4993204;28;20397;-74
2023/04/27 07:22:47;;;;;;;8.05;3.55;;;6.60;99.90;;;;;;5010900;28;20303;-73
2023/04/27 07:25:12;;;;;;;7.57;3.15;;;6.80;99.90;;;;;;5002444;28;20041;-73
2023/04/27 07:27:38;;;;;;;8.32;3.42;;;6.90;99.90;;;;;;5010882;28;20056;-75
2023/04/27 07:30:08;;;;;;;7.00;3.50;;;7.00;99.90;;;;;;5008421;28;20135;-74
2023/04/27 07:32:34;;;;;;;8.23;3.20;;;7.20;99.90;;;;;;5004938;28;20070;-75
2023/04/27 07:35:00;;;;;;;7.28;3.03;;;7.30;99.90;;;;;;5011023;28;20159;-72
2023/04/27 07:37:25;;;;;;;8.15;3.42;;;7.40;99.90;;;;;;5002831;28;20033;-73
2023/04/27 07:39:52;;;;;;;7.50;3.08;;;7.60;99.90;;;;;;4976205;28;20512;-74
2023/04/27 07:42:18;;;;;;;8.25;2.80;;;7.70;99.90;;;;;;5009284;28;20514;-75
2023/04/27 07:44:44;;;;;;;5.68;2.53;;;7.80;99.90;;;;;;5010076;28;20552;-75
2023/04/27 07:47:09;;;;;;;6.75;2.20;;;7.90;99.90;;;;;;5010551;28;20041;-76
2023/04/27 07:49:36;;;;;;;7.03;3.22;;;7.90;99.90;;;;;;5001812;28;20038;-73
2023/04/27 07:52:03;;;;;;;5.60;2.90;;;8.10;99.90;;;;;;5007603;28;20050;-75
2023/04/27 07:54:29;;;;;;;5.78;2.75;;;8.30;99.90;;;;;;5010411;28;20366;-72
2023/04/27 07:56:55;;;;;;;7.85;2.63;;;8.40;99.90;;;;;;5010175;28;20104;-73
2023/04/27 07:59:20;;;;;;;4.45;2.13;;;8.60;99.90;;;;;;5009816;28;20751;-75
2023/04/27 08:01:46;;;;;;;6.03;2.38;;;8.80;99.90;;;;;;4992410;28;20050;-73
2023/04/27 08:04:12;;;;;;;10.13;2.15;;;9.00;99.90;;;;;;5010554;28;20041;-75
2023/04/27 08:06:38;;;;;;;7.05;2.30;;;9.20;99.90;;;;;;5010756;28;20050;-72
2023/04/27 08:09:04;;;;;;;8.13;1.95;;;9.30;99.90;;;;;;4993466;28;20081;-72
2023/04/27 08:11:30;;;;;;;4.93;1.80;;;9.60;99.90;;;;;;5000386;28;20718;-72
2023/04/27 08:13:56;;;;;;;5.22;1.70;;;9.60;99.90;;;;;;5010011;28;20085;-73
2023/04/27 08:16:22;;;;;;;7.40;1.80;;;10.40;99.90;;;;;;5010205;28;20081;-75
2023/04/27 08:18:49;;;;;;;4.28;1.63;;;10.00;99.90;;;;;;5008592;28;20113;-74
2023/04/27 08:21:15;;;;;;;3.95;1.63;;;10.20;99.90;;;;;;5008715;28;20125;-75
2023/04/27 08:23:41;;;;;;;5.55;1.75;;;10.30;99.90;;;;;;5010312;28;20093;-75
2023/04/27 08:26:07;;;;;;;6.13;2.35;;;10.30;99.90;;;;;;5009629;28;20065;-75
2023/04/27 08:28:32;;;;;;;5.22;1.80;;;10.40;99.90;;;;;;5009813;28;20045;-76
2023/04/27 08:30:58;;;;;;;5.03;1.40;;;11.10;99.90;;;;;;5009756;28;20037;-74
2023/04/27 08:33:24;;;;;;;4.72;1.80;;;10.60;99.90;;;;;;5010151;28;20042;-78
2023/04/27 08:35:52;;;;;;;2.88;1.55;;;10.80;99.90;;;;;;5010095;28;20038;-76
2023/04/27 08:38:18;;;;;;;4.47;1.80;;;11.00;99.90;;;;;;5010191;28;20045;-75
2023/04/27 08:40:44;;;;;;;6.63;1.83;;;11.40;99.90;;;;;;5000912;28;20122;-75
2023/04/27 08:43:09;;;;;;;3.35;2.20;;;11.00;99.90;;;;;;5000175;28;20750;-78
2023/04/27 08:45:35;;;;;;;3.47;1.73;;;11.10;99.90;;;;;;5009777;28;20041;-81
2023/04/27 08:48:01;;;;;;;4.13;1.90;;;11.50;99.90;;;;;;5009749;28;20097;-75
2023/04/27 08:50:27;;;;;;;4.30;1.80;;;11.70;99.90;;;;;;5009712;28;20046;-76
2023/04/27 08:52:53;;;;;;;5.22;2.53;;;11.20;99.90;;;;;;5009721;28;20133;-75
2023/04/27 08:55:18;;;;;;;5.53;2.53;;;11.30;99.90;;;;;;5002686;28;20189;-74
2023/04/27 08:57:58;;;;;;;6.30;2.42;;;11.20;99.90;;;;;;5020014;28;20451;-74
2023/04/27 09:00:25;;;;;;;6.22;2.33;;;11.40;99.90;;;;;;5013393;28;20054;-73
2023/04/27 09:02:51;;;;;;;5.13;2.13;;;11.60;99.90;;;;;;5005320;28;20042;-75
2023/04/27 09:05:17;;;;;;;9.32;2.75;;;11.70;99.90;;;;;;5013607;28;20582;-76
2023/04/27 09:07:54;;;;;;;7.35;2.33;;;11.80;99.90;;;;;;5014656;28;20054;-77
2023/04/27 09:10:22;;;;;;;8.35;2.17;;;11.70;99.90;;;;;;5024934;28;20483;-74
2023/04/27 09:12:58;;;;;;;7.32;2.40;;;11.90;99.90;;;;;;5023169;28;20045;-74
2023/04/27 09:15:23;;;;;;;3.80;2.00;;;12.00;99.90;;;;;;5021756;28;20132;-77
2023/04/27 09:17:56;;;;;;;6.03;2.28;;;12.10;99.90;;;;;;5022568;28;20076;-76
2023/04/27 09:20:22;;;;;;;6.43;1.92;;;12.10;99.90;;;;;;5024693;28;20056;-80
2023/04/27 09:22:50;;;;;;;7.28;2.35;;;12.30;99.90;;;;;;5015099;28;20060;-79
2023/04/27 09:25:30;;;;;;;5.25;1.77;;;12.10;99.90;;;;;;5021511;28;20041;-76
2023/04/27 09:27:57;;;;;;;5.88;2.45;;;12.20;99.90;;;;;;5021966;28;20042;-76
2023/04/27 09:30:24;;;;;;;5.40;2.65;;;12.30;99.90;;;;;;5024412;28;20045;-77
2023/04/27 09:32:58;;;;;;;6.03;2.20;;;12.40;99.90;;;;;;5024487;28;20073;-76
2023/04/27 09:35:26;;;;;;;4.85;2.85;;;12.60;99.90;;;;;;5008133;28;20124;-76
2023/04/27 09:37:53;;;;;;;6.38;2.53;;;12.80;99.90;;;;;;5024314;28;20110;-76
2023/04/27 09:40:25;;;;;;;4.90;2.30;;;12.80;99.90;;;;;;5022411;28;20480;-76
2023/04/27 09:42:51;;;;;;;5.57;2.95;;;12.90;99.90;;;;;;5021167;28;20073;-76
2023/04/27 09:45:18;;;;;;;7.13;2.95;;;12.90;99.90;;;;;;5020698;28;20485;-75
2023/04/27 09:47:44;;;;;;;10.25;2.90;;;12.70;99.90;;;;;;5017605;28;20068;-75
2023/04/27 09:50:12;;;;;;;8.50;2.72;;;12.70;99.90;;;;;;5013998;28;20117;-75
2023/04/27 09:52:38;;;;;;;7.25;2.83;;;12.70;99.90;;;;;;5021334;28;20041;-76
2023/04/27 09:55:08;;;;;;;9.35;2.88;;;13.00;99.90;;;;;;5018443;28;20508;-75
2023/04/27 09:57:47;;;;;;;7.15;3.83;;;13.00;99.90;;;;;;5021796;28;20046;-75
2023/04/27 10:00:18;;;;;;;8.45;3.78;;;13.10;99.90;;;;;;5012074;28;20384;-74
2023/04/27 10:03:06;;;;;;;10.25;3.40;;;13.10;99.90;;;;;;5021622;28;20049;-75
2023/04/27 10:05:50;;;;;;;10.82;4.30;;;13.10;99.90;;;;;;5016488;28;20058;-78
2023/04/27 10:08:16;;;;;;;9.38;3.30;;;13.10;99.90;;;;;;5021521;28;20057;-77
2023/04/27 10:10:49;;;;;;;8.38;3.90;;;13.00;99.90;;;;;;5022724;28;20389;-74
2023/04/27 10:13:25;;;;;;;9.77;3.42;;;13.00;99.90;;;;;;5021249;28;20048;-75
2023/04/27 10:15:52;;;;;;;8.05;3.13;;;13.10;99.90;;;;;;5022250;28;20148;-74
2023/04/27 10:18:26;;;;;;;7.57;3.58;;;12.90;99.90;;;;;;5024450;28;20121;-76
2023/04/27 10:20:52;;;;;;;6.68;3.67;;;13.00;99.90;;;;;;5018944;28;20053;-75
2023/04/27 10:23:23;;;;;;;7.68;3.05;;;13.10;99.90;;;;;;5006541;28;20030;-76
2023/04/27 10:25:48;;;;;;;8.55;3.33;;;13.30;99.90;;;;;;5021317;28;20481;-75
2023/04/27 10:28:20;;;;;;;11.10;3.90;;;13.40;99.90;;;;;;5020686;28;20057;-74
2023/04/27 10:30:47;;;;;;;17.70;4.20;;;13.50;99.90;;;;;;5020368;28;20113;-75
2023/04/27 10:33:18;;;;;;;6.72;3.17;;;13.40;99.90;;;;;;4978445;28;20042;-75
2023/04/27 10:35:56;;;;;;;9.80;4.15;;;13.20;99.90;;;;;;5020675;28;20468;-74
2023/04/27 10:38:31;;;;;;;5.70;3.50;;;13.30;99.90;;;;;;5022961;28;20049;-75
2023/04/27 10:41:01;;;;;;;9.40;4.00;;;13.40;99.90;;;;;;5020795;28;20101;-77
2023/04/27 10:43:29;;;;;;;10.30;4.28;;;13.50;99.90;;;;;;5011739;28;20065;-77
2023/04/27 10:46:07;;;;;;;10.30;4.10;;;13.40;99.90;;;;;;5020612;28;20073;-75
2023/04/27 10:48:32;;;;;;;7.28;3.60;;;13.50;99.90;;;;;;5023615;28;20046;-74
2023/04/27 10:51:01;;;;;;;6.57;3.90;;;13.50;99.90;;;;;;5024390;28;20107;-79
2023/04/27 10:53:34;;;;;;;11.45;4.65;;;13.40;99.90;;;;;;5023166;28;20132;-75
2023/04/27 10:55:59;;;;;;;11.23;4.20;;;13.40;99.90;;;;;;5021388;28;20049;-78
2023/04/27 10:58:25;;;;;;;10.90;3.83;;;13.30;99.90;;;;;;5029624;28;20516;-80
2023/04/27 11:00:51;;;;;;;7.28;4.00;;;13.40;99.90;;;;;;5020555;28;20389;-82
2023/04/27 11:03:20;;;;;;;7.70;4.10;;;13.50;99.90;;;;;;5029218;28;20053;-75
2023/04/27 11:05:47;;;;;;;6.78;3.70;;;13.60;99.90;;;;;;5021351;28;20053;-74
2023/04/27 11:08:16;;;;;;;8.15;4.47;;;13.70;99.90;;;;;;5023091;28;20057;-74
2023/04/27 11:10:46;;;;;;;7.55;3.83;;;13.60;99.90;;;;;;5011784;28;20053;-75
2023/04/27 11:13:21;;;;;;;9.43;4.80;;;13.50;99.90;;;;;;5011753;28;20088;-75
2023/04/27 11:15:55;;;;;;;9.32;4.60;;;13.50;99.90;;;;;;5011974;28;20092;-76
2023/04/27 11:18:24;;;;;;;8.65;4.60;;;13.40;99.70;;;;;;4993104;28;20511;-78
2023/04/27 11:20:53;;;;;;;7.63;3.97;;;13.60;99.90;;;;;;5011354;28;20042;-73
2023/04/27 11:23:27;;;;;;;9.55;4.65;;;13.80;99.90;;;;;;5012291;28;20052;-74
2023/04/27 11:25:54;;;;;;;11.13;4.50;;;13.80;99.90;;;;;;5011819;28;20053;-74
2023/04/27 11:28:21;;;;;;;19.50;5.35;;;13.80;99.90;;;;;;5011700;28;20351;-74
2023/04/27 11:30:54;;;;;;;12.13;5.20;;;13.80;99.90;;;;;;5011489;28;20501;-74
2023/04/27 11:33:21;;;;;;;9.55;5.05;;;13.60;99.90;;;;;;5017030;28;20125;-75
2023/04/27 11:35:47;;;;;;;10.45;5.22;;;13.40;99.90;;;;;;5010390;28;20038;-75
2023/04/27 11:38:17;;;;;;;11.32;4.90;;;13.40;99.90;;;;;;5011421;28;20702;-76
2023/04/27 11:40:43;;;;;;;10.43;5.00;;;13.40;99.90;;;;;;5011551;28;20060;-80
2023/04/27 11:43:14;;;;;;;12.18;4.85;;;13.50;99.90;;;;;;5011463;28;20095;-75
2023/04/27 11:45:46;;;;;;;13.40;4.95;;;13.40;99.90;;;;;;5011635;28;20050;-74
2023/04/27 11:48:15;;;;;;;11.90;5.20;;;13.40;99.90;;;;;;5019043;28;20064;-73
2023/04/27 11:50:48;;;;;;;10.10;5.55;;;13.20;99.90;;;;;;5003922;28;20073;-73
2023/04/27 11:53:14;;;;;;;13.13;5.70;;;13.10;99.90;;;;;;5011275;28;20053;-73
2023/04/27 11:55:40;;;;;;;11.70;6.30;;;13.20;99.90;;;;;;5010719;28;20056;-74
2023/04/27 11:58:13;;;;;;;11.85;5.25;;;12.70;98.80;;;;;;5011784;28;20046;-76
2023/04/27 12:00:39;;;;;;;11.52;5.70;;;12.70;99.90;;;;;;5010551;28;20050;-74
2023/04/27 12:03:04;;;;;;;10.82;5.45;;;12.70;99.90;;;;;;5010267;28;20117;-75
2023/04/27 12:05:30;;;;;;;9.15;5.53;;;12.80;99.90;;;;;;4992855;28;20052;-76
2023/04/27 12:07:56;;;;;;;15.10;5.93;;;12.90;99.90;;;;;;5020162;28;20405;-75
2023/04/27 12:10:21;;;;;;;12.88;6.20;;;12.70;99.90;;;;;;5021807;28;20049;-75
2023/04/27 12:12:47;;;;;;;11.38;5.78;;;12.70;99.90;;;;;;5020454;28;20045;-75
2023/04/27 12:15:12;;;;;;;10.23;5.32;;;12.50;99.90;;;;;;5018740;28;20034;-75
2023/04/27 12:17:38;;;;;;;11.30;5.38;;;12.60;99.90;;;;;;5018447;28;20049;-73
2023/04/27 12:20:05;;;;;;;10.52;5.95;;;12.30;99.90;;;;;;5008560;28;20038;-74
2023/04/27 12:22:31;;;;;;;13.40;5.88;;;12.30;99.90;;;;;;5018252;28;20132;-74
2023/04/27 12:24:57;;;;;;;9.95;4.70;;;12.20;99.90;;;;;;5021316;28;20053;-75
2023/04/27 12:27:22;;;;;;;8.38;4.60;;;12.10;99.90;;;;;;5018963;28;20677;-75
2023/04/27 12:29:48;;;;;;;8.93;4.13;;;12.10;99.90;;;;;;5017394;28;20037;-75
2023/04/27 12:32:13;;;;;;;7.70;3.67;;;12.30;99.90;;;;;;5014932;28;20475;-75
2023/04/27 12:34:39;;;;;;;7.72;3.47;;;12.20;99.90;;;;;;5018291;28;20042;-76
2023/04/27 12:37:05;;;;;;;11.25;3.78;;;12.20;99.90;;;;;;5018048;28;20707;-77
2023/04/27 12:39:31;;;;;;;6.20;3.47;;;12.20;99.90;;;;;;5021935;28;20052;-76
2023/04/27 12:41:57;;;;;;;8.63;4.25;;;12.30;99.90;;;;;;5014869;28;20500;-76
2023/04/27 12:44:23;;;;;;;6.68;3.55;;;12.40;99.90;;;;;;5025830;28;20055;-79
2023/04/27 12:46:49;;;;;;;8.13;4.10;;;12.60;99.90;;;;;;5016277;28;20038;-76